Time;durP1;ratioP1;P1;durP2;ratioP2;P2;SDS_P1;SDS_P2;PMS_P1;PMS_P2;Temp;Humidity;BMP_temperature;BMP_pressure;BME280_temperature;BME280_humidity;BME280_pressure;Samples;Min_cycle;Max_cycle;Signal;HPM_P1;HPM_P2
2022/08/11 00:00:59;;;;;;;;;;;;;;;24.97;34.75;100333.81;4297144;33;19988;-83
2022/08/11 00:03:27;;;;;;;;;;;;;;;25.15;34.95;100339.44;4296393;33;20052;-82
2022/08/11 00:06:09;;;;;;;;;;;;;;;25.09;35.26;100339.63;4297072;33;19988;-84
2022/08/11 00:08:36;;;;;;;;;;;;;;;25.15;35.01;100328.84;4294659;33;19985;-85
2022/08/11 00:11:04;;;;;;;;;;;;;;;25.04;35.70;100337.97;4286851;33;20001;-81
2022/08/11 00:13:37;;;;;;;;;;;;;;;25.05;36.08;100342.37;4296120;33;20036;-82
2022/08/11 00:16:10;;;;;;;;;;;;;;;25.03;35.64;100330.94;4286254;33;19997;-82
2022/08/11 00:18:39;;;;;;;;;;;;;;;24.97;35.96;100336.47;4298645;33;19984;-82
2022/08/11 00:21:06;;;;;;;;;;;;;;;24.88;35.58;100320.91;4294483;33;19981;-80
2022/08/11 00:23:33;;;;;;;;;;;;;;;24.88;35.68;100326.19;4281729;33;20120;-81
2022/08/11 00:25:59;;;;;;;;;;;;;;;24.92;35.74;100332.25;4296391;33;20843;-83
2022/08/11 00:28:27;;;;;;;;;;;;;;;24.80;36.62;100322.97;4289539;33;20036;-79
2022/08/11 00:30:55;;;;;;;;;;;;;;;24.80;36.59;100317.66;4292258;33;20383;-83
2022/08/11 00:33:23;;;;;;;;;;;;;;;24.77;36.35;100328.37;4292129;33;20052;-82
2022/08/11 00:36:11;;;;;;;;;;;;;;;24.71;36.62;100317.97;4298601;33;19988;-83
2022/08/11 00:38:39;;;;;;;;;;;;;;;24.56;36.73;100325.53;4292414;33;19980;-82
2022/08/11 00:41:15;;;;;;;;;;;;;;;24.59;37.08;100322.78;4281874;33;19981;-80
2022/08/11 00:44:01;;;;;;;;;;;;;;;24.55;37.66;100323.78;4296966;33;20335;-82
2022/08/11 00:46:28;;;;;;;;;;;;;;;24.51;37.30;100316.88;4291462;33;19992;-83
2022/08/11 00:49:10;;;;;;;;;;;;;;;24.46;37.61;100316.16;4296080;33;20032;-80
2022/08/11 00:51:59;;;;;;;;;;;;;;;24.53;37.37;100320.31;4300144;33;20000;-81
2022/08/11 00:54:42;;;;;;;;;;;;;;;24.34;38.12;100313.88;4291458;33;19993;-83
2022/08/11 00:57:27;;;;;;;;;;;;;;;24.39;38.10;100317.25;4292215;33;20119;-80
2022/08/11 01:00:10;;;;;;;;;;;;;;;24.42;37.93;100311.91;4285254;33;19976;-80
2022/08/11 01:02:49;;;;;;;;;;;;;;;24.52;37.56;100313.31;4293279;33;19976;-80
2022/08/11 01:05:35;;;;;;;;;;;;;;;24.55;37.20;100318.50;4306062;33;19981;-80
2022/08/11 01:08:30;;;;;;;;;;;;;;;24.55;37.83;100317.66;4294227;33;19988;-82
2022/08/11 01:11:01;;;;;;;;;;;;;;;24.58;38.00;100314.91;4287763;33;19980;-84
2022/08/11 01:13:42;;;;;;;;;;;;;;;24.60;37.68;100310.38;4301397;33;19988;-83
2022/08/11 01:16:13;;;;;;;;;;;;;;;24.61;37.36;100311.28;4283807;33;20003;-83
2022/08/11 01:18:53;;;;;;;;;;;;;;;24.61;37.71;100306.00;4291877;33;20012;-82
2022/08/11 01:21:35;;;;;;;;;;;;;;;24.73;36.40;100305.53;4281108;33;20015;-83
2022/08/11 01:24:13;;;;;;;;;;;;;;;24.52;37.08;100300.06;4300382;33;19973;-81
2022/08/11 01:26:41;;;;;;;;;;;;;;;24.54;37.26;100314.13;4285064;33;20047;-82
2022/08/11 01:29:16;;;;;;;;;;;;;;;24.64;37.31;100293.50;4282814;33;20060;-82
2022/08/11 01:31:53;;;;;;;;;;;;;;;24.66;37.16;100304.87;4289124;33;19976;-83
2022/08/11 01:34:26;;;;;;;;;;;;;;;24.58;37.14;100294.56;4297584;33;20048;-82
2022/08/11 01:36:58;;;;;;;;;;;;;;;24.68;36.86;100318.09;4288785;33;19993;-81
2022/08/11 01:39:32;;;;;;;;;;;;;;;24.59;37.32;100292.78;4284382;33;20476;-82
2022/08/11 01:44:47;;;;;;;;;;;;;;;24.52;37.10;100296.56;4298874;33;20425;-82
2022/08/11 01:47:49;;;;;;;;;;;;;;;24.43;37.64;100297.75;4297000;33;20279;-81
2022/08/11 01:50:26;;;;;;;;;;;;;;;24.45;37.47;100289.75;4306642;33;20000;-82
2022/08/11 01:53:00;;;;;;;;;;;;;;;24.62;37.00;100302.41;4290337;33;20005;-80
2022/08/11 01:55:28;;;;;;;;;;;;;;;24.30;37.49;100301.69;4308146;33;20040;-83
2022/08/11 01:58:05;;;;;;;;;;;;;;;24.53;36.95;100304.44;4297398;33;20320;-80
2022/08/11 02:00:39;;;;;;;;;;;;;;;24.48;37.35;100295.81;4301610;33;19996;-80
2022/08/11 02:03:11;;;;;;;;;;;;;;;24.55;37.37;100299.97;4293224;33;20041;-81
2022/08/11 02:06:01;;;;;;;;;;;;;;;24.51;37.43;100290.41;4301895;33;19972;-81
2022/08/11 02:08:33;;;;;;;;;;;;;;;24.79;36.44;100300.03;4282766;33;20311;-81
2022/08/11 02:13:59;;;;;;;;;;;;;;;24.35;37.95;100289.19;4293501;33;19999;-83
2022/08/11 02:16:54;;;;;;;;;;;;;;;24.23;38.13;100279.00;4289429;33;19989;-80
2022/08/11 02:25:31;;;;;;;;;;;;;;;24.33;37.32;100291.00;4287633;33;19981;-80
2022/08/11 02:28:01;;;;;;;;;;;;;;;24.38;37.28;100291.72;4282184;33;20004;-83
2022/08/11 02:30:31;;;;;;;;;;;;;;;24.00;37.92;100280.63;4300430;33;20036;-81
2022/08/11 02:33:23;;;;;;;;;;;;;;;24.14;36.77;100281.03;4296205;33;19992;-82
2022/08/11 02:36:07;;;;;;;;;;;;;;;24.38;37.59;100289.06;4294617;33;19973;-83
2022/08/11 02:38:42;;;;;;;;;;;;;;;24.16;37.77;100278.34;4291264;33;19984;-80
2022/08/11 02:44:31;;;;;;;;;;;;;;;24.43;37.09;100276.56;4299934;33;20087;-83
2022/08/11 02:47:13;;;;;;;;;;;;;;;24.50;36.51;100283.38;4284978;33;20672;-80
2022/08/11 02:49:54;;;;;;;;;;;;;;;24.33;37.00;100275.13;4286854;33;20017;-79
2022/08/11 02:52:35;;;;;;;;;;;;;;;24.45;36.90;100268.59;4268527;33;20014;-81
2022/08/11 02:55:22;;;;;;;;;;;;;;;24.51;36.63;100271.88;4242589;33;868381;-80
2022/08/11 02:58:15;;;;;;;;;;;;;;;24.51;37.11;100279.84;4276142;33;20699;-81
2022/08/11 03:00:49;;;;;;;;;;;;;;;24.44;37.32;100283.63;4267612;33;19989;-81
2022/08/11 03:03:22;;;;;;;;;;;;;;;24.32;38.09;100273.41;4266889;33;19996;-84
2022/08/11 03:05:59;;;;;;;;;;;;;;;24.38;38.48;100273.19;4271541;33;20071;-84
2022/08/11 03:08:29;;;;;;;;;;;;;;;24.28;39.01;100277.03;4282226;33;19985;-81
2022/08/11 03:17:53;;;;;;;;;;;;;;;24.38;38.01;100289.06;4297776;33;20160;-84
2022/08/11 03:20:29;;;;;;;;;;;;;;;24.41;37.52;100288.09;4303231;33;20003;-85
2022/08/11 03:23:22;;;;;;;;;;;;;;;24.45;36.88;100285.34;4299267;33;20665;-82
2022/08/11 03:25:50;;;;;;;;;;;;;;;24.47;37.92;100283.47;4296331;33;20012;-82
2022/08/11 03:28:34;;;;;;;;;;;;;;;24.40;37.56;100281.94;4289983;33;19993;-84
2022/08/11 03:31:07;;;;;;;;;;;;;;;24.36;37.57;100278.53;4306802;33;20000;-84
2022/08/11 03:34:01;;;;;;;;;;;;;;;24.34;37.80;100282.13;4296806;33;19995;-83
2022/08/11 03:36:51;;;;;;;;;;;;;;;24.14;38.06;100281.03;4292832;33;19997;-82
2022/08/11 03:39:44;;;;;;;;;;;;;;;24.30;37.72;100285.81;4282091;33;20009;-84
2022/08/11 03:42:28;;;;;;;;;;;;;;;24.18;38.03;100286.22;4285641;33;19999;-80
2022/08/11 03:44:55;;;;;;;;;;;;;;;24.05;38.28;100281.31;4287843;33;19995;-82
2022/08/11 03:47:26;;;;;;;;;;;;;;;24.23;38.24;100279.00;4290675;33;20000;-83
2022/08/11 03:50:00;;;;;;;;;;;;;;;24.23;38.72;100279.84;4293460;33;19984;-83
2022/08/11 03:52:28;;;;;;;;;;;;;;;24.22;38.38;100282.53;4288896;33;19999;-79
2022/08/11 03:55:14;;;;;;;;;;;;;;;24.17;39.10;100282.69;4296334;33;20687;-79
2022/08/11 03:58:00;;;;;;;;;;;;;;;24.10;38.94;100289.97;4306956;33;20335;-81
2022/08/11 04:00:46;;;;;;;;;;;;;;;23.99;39.24;100284.16;4294034;33;20028;-79
2022/08/11 04:03:19;;;;;;;;;;;;;;;24.13;39.77;100284.59;4289819;33;19988;-81
2022/08/11 04:06:08;;;;;;;;;;;;;;;23.96;39.15;100276.31;4282296;33;19985;-81
2022/08/11 04:08:35;;;;;;;;;;;;;;;23.88;40.33;100283.66;4282168;33;20004;-80
2022/08/11 04:11:05;;;;;;;;;;;;;;;23.89;40.26;100288.00;4282174;33;20032;-80
2022/08/11 04:13:51;;;;;;;;;;;;;;;23.98;40.45;100290.38;4282175;33;20107;-82
2022/08/11 04:16:37;;;;;;;;;;;;;;;23.89;41.44;100296.81;4289966;33;20453;-80
2022/08/11 04:19:23;;;;;;;;;;;;;;;23.95;39.72;100290.47;4281816;33;20027;-80
2022/08/11 04:22:01;;;;;;;;;;;;;;;24.00;39.93;100288.56;4278755;33;20040;-83
2022/08/11 04:24:37;;;;;;;;;;;;;;;23.96;40.36;100286.91;4288335;33;20341;-80
2022/08/11 04:27:08;;;;;;;;;;;;;;;24.17;38.52;100289.78;4292814;33;20024;-82
2022/08/11 04:29:45;;;;;;;;;;;;;;;24.10;38.78;100289.13;4281340;33;20044;-84
2022/08/11 04:32:37;;;;;;;;;;;;;;;24.17;39.06;100290.63;4281562;33;20375;-79
2022/08/11 04:35:23;;;;;;;;;;;;;;;24.37;38.90;100297.91;4284832;33;19996;-80
2022/08/11 04:37:53;;;;;;;;;;;;;;;24.13;39.60;100305.75;4286887;33;19976;-82
2022/08/11 04:40:33;;;;;;;;;;;;;;;24.32;38.62;100294.56;4285693;33;20024;-81
2022/08/11 04:43:21;;;;;;;;;;;;;;;23.86;40.00;100301.31;4287310;33;19993;-81
2022/08/11 04:46:07;;;;;;;;;;;;;;;24.27;39.06;100301.78;4287832;33;19988;-83
2022/08/11 05:03:45;;;;;;;;;;;;;;;24.54;40.06;100306.19;4300346;33;20255;-82
2022/08/11 05:06:33;;;;;;;;;;;;;;;24.54;40.96;100306.19;4282984;33;19992;-82
2022/08/11 05:08:59;;;;;;;;;;;;;;;24.62;41.99;100307.72;4293806;33;20008;-84
2022/08/11 05:11:30;;;;;;;;;;;;;;;24.61;41.17;100308.63;4285949;33;20003;-82
2022/08/11 05:34:48;;;;;;;;;;;;;;;25.33;37.13;100317.53;4306405;33;20354;-80
2022/08/11 05:37:23;;;;;;;;;;;;;;;25.41;36.09;100323.44;4306801;33;20012;-79
2022/08/11 05:56:55;;;;;;;;;;;;;;;25.82;35.06;100321.00;4290082;33;20003;-80
2022/08/11 05:59:23;;;;;;;;;;;;;;;25.80;34.71;100316.66;4292074;33;19988;-80
2022/08/11 06:01:50;;;;;;;;;;;;;;;25.91;34.78;100328.59;4294291;33;20003;-80
2022/08/11 06:04:22;;;;;;;;;;;;;;;25.51;35.08;100322.16;4292750;33;20350;-79
2022/08/11 06:06:56;;;;;;;;;;;;;;;25.85;35.08;100320.91;4289807;33;20497;-80
2022/08/11 06:09:27;;;;;;;;;;;;;;;26.02;34.98;100322.00;4306718;33;20049;-81
2022/08/11 06:11:55;;;;;;;;;;;;;;;26.08;35.45;100332.37;4307918;33;20011;-80
2022/08/11 06:14:22;;;;;;;;;;;;;;;26.18;34.51;100323.12;4300762;33;20400;-81
2022/08/11 06:16:49;;;;;;;;;;;;;;;26.10;34.70;100325.19;4285088;33;19998;-80
2022/08/11 06:19:17;;;;;;;;;;;;;;;25.82;34.20;100326.31;4298972;33;20000;-81
2022/08/11 06:21:44;;;;;;;;;;;;;;;26.15;34.08;100328.53;4293319;33;20003;-81
2022/08/11 06:24:11;;;;;;;;;;;;;;;26.16;33.86;100327.59;4282984;33;20008;-80
2022/08/11 06:26:46;;;;;;;;;;;;;;;26.32;32.69;100315.44;4297471;33;20044;-80
2022/08/11 06:29:40;;;;;;;;;;;;;;;26.24;33.53;100312.25;4294692;33;20011;-79
2022/08/11 06:32:26;;;;;;;;;;;;;;;26.34;33.30;100318.91;4294326;33;20008;-80
2022/08/11 06:34:59;;;;;;;;;;;;;;;26.23;34.31;100318.50;4292992;33;19985;-80
2022/08/11 06:37:30;;;;;;;;;;;;;;;26.29;33.49;100320.91;4288818;33;20036;-79
2022/08/11 06:40:04;;;;;;;;;;;;;;;26.24;32.79;100317.56;4302605;33;19988;-80
2022/08/11 06:43:03;;;;;;;;;;;;;;;26.40;32.17;100318.66;4296384;33;20710;-79
2022/08/11 06:45:34;;;;;;;;;;;;;;;26.60;32.14;100322.28;4296224;33;19984;-79
2022/08/11 06:48:01;;;;;;;;;;;;;;;26.90;32.09;100317.47;4288712;33;19988;-80
2022/08/11 06:53:15;;;;;;;;;;;;;;;27.43;32.67;100316.00;4299117;33;20033;-80
2022/08/11 07:01:45;;;;;;;;;;;;;;;27.88;32.07;100317.47;4255986;33;20127;-81
2022/08/11 07:04:19;;;;;;;;;;;;;;;27.99;30.92;100316.00;4264551;33;19989;-79
2022/08/11 07:15:40;;;;;;;;;;;;;;;28.19;29.53;100312.38;4282951;33;19989;-80
2022/08/11 07:15:41;;;;;;;;;;;;;;;28.88;30.51;100311.56;4267988;33;19981;-80
2022/08/11 07:30:19;;;;;;;;;;;;;;;30.92;24.59;100296.56;4269136;33;20652;-80
2022/08/11 07:32:49;;;;;;;;;;;;;;;30.66;25.03;100290.94;4263467;33;19994;-80
2022/08/11 07:35:17;;;;;;;;;;;;;;;30.79;25.78;100288.44;4260609;33;19997;-80
2022/08/11 07:37:46;;;;;;;;;;;;;;;31.10;24.26;100295.44;4261842;33;20009;-80
2022/08/11 07:40:14;;;;;;;;;;;;;;;31.22;23.62;100299.16;4259658;33;20266;-79
2022/08/11 07:42:45;;;;;;;;;;;;;;;31.50;23.58;100301.84;4262652;33;20331;-79
2022/08/11 07:53:30;;;;;;;;;;;;;;;31.69;22.11;100284.63;4265043;33;19985;-79
2022/08/11 07:55:57;;;;;;;;;;;;;;;31.65;22.41;100281.28;4262940;33;19997;-80
2022/08/11 08:18:03;;;;;;;;;;;;;;;32.31;21.36;100284.97;4296619;33;20035;-79
2022/08/11 08:20:50;;;;;;;;;;;;;;;32.63;20.38;100276.59;4294962;33;20307;-79
2022/08/11 08:23:31;;;;;;;;;;;;;;;32.79;20.46;100274.56;4295093;33;19996;-78
2022/08/11 08:26:00;;;;;;;;;;;;;;;32.77;21.79;100281.88;4290926;33;19980;-79
2022/08/11 08:28:27;;;;;;;;;;;;;;;32.68;20.86;100282.50;4289649;33;20012;-79
2022/08/11 08:30:58;;;;;;;;;;;;;;;32.94;21.20;100277.16;4303638;33;20327;-79
2022/08/11 08:33:26;;;;;;;;;;;;;;;32.86;21.50;100275.84;4296104;33;20019;-78
2022/08/11 08:38:40;;;;;;;;;;;;;;;32.86;21.42;100281.22;4280642;33;19981;-78
2022/08/11 08:41:07;;;;;;;;;;;;;;;32.40;22.82;100273.63;4294130;33;20035;-78
2022/08/11 08:43:39;;;;;;;;;;;;;;;32.08;23.57;100267.78;4293183;33;20040;-79
2022/08/11 08:46:15;;;;;;;;;;;;;;;32.72;21.71;100275.97;4269667;33;20402;-78
2022/08/11 08:48:41;;;;;;;;;;;;;;;32.77;21.74;100265.78;4288090;33;20063;-79
2022/08/11 08:51:35;;;;;;;;;;;;;;;32.95;21.86;100257.41;3959490;33;20002562;-78
2022/08/11 08:54:25;;;;;;;;;;;;;;;32.64;22.27;100256.84;4291185;33;20000;-79
2022/08/11 08:56:53;;;;;;;;;;;;;;;32.33;20.94;100267.00;4302291;33;20050;-80
2022/08/11 08:59:20;;;;;;;;;;;;;;;32.32;21.49;100259.88;4296144;33;19977;-79
2022/08/11 09:01:53;;;;;;;;;;;;;;;31.79;22.66;100267.00;4306663;33;20028;-78
2022/08/11 09:04:19;;;;;;;;;;;;;;;32.05;21.89;100267.97;4306466;33;20032;-77
2022/08/11 09:06:46;;;;;;;;;;;;;;;32.31;20.95;100260.84;4306848;33;20002;-77
2022/08/11 09:09:19;;;;;;;;;;;;;;;32.14;21.93;100255.78;4306255;33;20036;-78
2022/08/11 09:11:49;;;;;;;;;;;;;;;32.36;22.28;100256.06;4293621;33;20040;-79
2022/08/11 09:14:17;;;;;;;;;;;;;;;32.69;22.58;100252.03;4293143;33;19980;-78
2022/08/11 09:16:44;;;;;;;;;;;;;;;32.59;22.48;100250.97;4294024;33;19984;-79
2022/08/11 09:19:13;;;;;;;;;;;;;;;32.76;21.75;100242.59;4293665;33;19989;-79
2022/08/11 09:21:40;;;;;;;;;;;;;;;33.14;21.16;100247.09;4293626;33;20008;-79
2022/08/11 09:27:03;;;;;;;;;;;;;;;33.09;20.99;100243.91;4289570;33;20044;-79
2022/08/11 09:29:30;;;;;;;;;;;;;;;32.84;21.62;100232.22;4290718;33;20382;-79
2022/08/11 09:31:57;;;;;;;;;;;;;;;33.00;20.54;100228.47;4294551;33;20522;-79
2022/08/11 09:34:25;;;;;;;;;;;;;;;32.88;20.61;100231.00;4294671;33;20019;-79
2022/08/11 09:44:45;;;;;;;;;;;;;;;32.93;21.78;100229.81;4295057;33;20032;-79
2022/08/11 09:45:11;;;;;;;;;;;;;;;33.46;20.63;100219.75;4287252;33;19989;-78
2022/08/11 09:47:39;;;;;;;;;;;;;;;33.65;19.61;100220.16;4292808;33;20390;-78
2022/08/11 09:50:06;;;;;;;;;;;;;;;33.70;19.90;100212.63;4296105;33;20028;-78
2022/08/11 09:52:35;;;;;;;;;;;;;;;34.08;19.30;100216.97;4295791;33;20069;-78
2022/08/11 09:55:05;;;;;;;;;;;;;;;34.06;19.12;100213.53;4297154;33;20036;-78
2022/08/11 10:00:17;;;;;;;;;;;;;;;33.86;17.87;100206.97;4286547;33;19992;-79
2022/08/11 10:02:45;;;;;;;;;;;;;;;33.54;19.40;100204.00;4294035;33;19987;-78
2022/08/11 10:08:00;;;;;;;;;;;;;;;32.76;19.99;100207.75;4292852;33;19981;-79
2022/08/11 10:10:27;;;;;;;;;;;;;;;33.12;19.25;100203.44;4292057;33;19999;-78
2022/08/11 10:12:58;;;;;;;;;;;;;;;32.75;20.91;100203.34;4293711;33;20055;-78
2022/08/11 10:15:36;;;;;;;;;;;;;;;33.07;19.48;100200.25;4292738;33;19980;-77
2022/08/11 10:20:57;;;;;;;;;;;;;;;32.14;20.76;100191.50;4298177;33;19980;-78
2022/08/11 10:26:53;;;;;;;;;;;;;;;32.13;20.38;100200.47;4294630;33;20024;-78
2022/08/11 10:35:28;;;;;;;;;;;;;;;32.69;20.20;100182.34;4296767;33;19977;-78
2022/08/11 10:37:55;;;;;;;;;;;;;;;32.46;20.16;100175.06;4293223;33;19989;-78
2022/08/11 10:40:38;;;;;;;;;;;;;;;32.20;21.54;100180.38;4294719;33;20019;-78
2022/08/11 10:43:09;;;;;;;;;;;;;;;32.18;21.66;100176.94;4305510;33;20747;-77
2022/08/11 10:48:23;;;;;;;;;;;;;;;31.66;19.36;100173.25;4296228;33;20011;-77
2022/08/11 10:59:08;;;;;;;;;;;;;;;32.36;19.69;100164.94;4293800;33;19992;-77
2022/08/11 11:01:37;;;;;;;;;;;;;;;32.25;20.75;100161.28;4293171;33;20833;-78
2022/08/11 11:04:06;;;;;;;;;;;;;;;32.68;19.30;100153.81;4295552;33;19989;-78
2022/08/11 11:06:43;;;;;;;;;;;;;;;32.85;17.75;100156.13;4295458;33;20040;-79
2022/08/11 11:09:12;;;;;;;;;;;;;;;32.91;17.37;100152.16;4293566;33;19996;-79
2022/08/11 11:20:13;;;;;;;;;;;;;;;32.18;18.08;100139.44;4293819;33;19996;-78
2022/08/11 11:23:07;;;;;;;;;;;;;;;32.25;18.96;100130.00;4294874;33;19992;-78
2022/08/11 11:26:05;;;;;;;;;;;;;;;32.19;18.68;100130.41;4292433;33;20043;-78
2022/08/11 11:28:48;;;;;;;;;;;;;;;32.47;17.83;100123.16;4295732;33;19999;-78
2022/08/11 11:31:22;;;;;;;;;;;;;;;32.91;15.29;100121.81;4295394;33;20008;-78
2022/08/11 11:33:53;;;;;;;;;;;;;;;33.21;15.21;100111.53;4289628;33;20012;-78
2022/08/11 11:36:46;;;;;;;;;;;;;;;33.20;15.75;100106.28;4289632;33;20632;-80
2022/08/11 11:39:18;;;;;;;;;;;;;;;33.29;15.55;100110.97;4290971;33;20071;-80
2022/08/11 11:41:45;;;;;;;;;;;;;;;32.88;18.11;100113.00;4287674;33;20003;-80
2022/08/11 11:44:11;;;;;;;;;;;;;;;32.67;17.35;100109.19;4294320;33;20044;-79
2022/08/11 11:46:39;;;;;;;;;;;;;;;32.42;18.31;100113.59;4289504;33;19995;-79
2022/08/11 11:49:08;;;;;;;;;;;;;;;32.52;17.67;100115.69;4289577;33;20000;-80
2022/08/11 11:51:43;;;;;;;;;;;;;;;32.32;17.78;100104.47;4288413;33;20007;-79
2022/08/11 11:54:15;;;;;;;;;;;;;;;32.23;17.99;100104.25;4288000;33;19988;-79
2022/08/11 11:56:42;;;;;;;;;;;;;;;32.12;17.99;100097.00;4296685;33;19988;-78
2022/08/11 12:01:54;;;;;;;;;;;;;;;32.00;18.45;100087.97;4287077;33;20020;-79
2022/08/11 12:04:22;;;;;;;;;;;;;;;31.88;18.99;100084.34;4292129;33;20040;-80
2022/08/11 12:06:49;;;;;;;;;;;;;;;32.15;17.81;100080.72;4285785;33;20007;-80
2022/08/11 12:09:21;;;;;;;;;;;;;;;32.05;19.47;100085.84;4302636;33;19973;-80
2022/08/11 12:14:35;;;;;;;;;;;;;;;31.99;18.93;100080.91;4289997;33;19981;-79
2022/08/11 12:17:02;;;;;;;;;;;;;;;31.63;19.62;100084.28;4288918;33;19988;-79
2022/08/11 12:19:28;;;;;;;;;;;;;;;31.82;18.48;100079.38;4290613;33;19996;-78
2022/08/11 12:27:33;;;;;;;;;;;;;;;31.93;18.03;100065.28;4289904;33;20059;-79
2022/08/11 12:30:04;;;;;;;;;;;;;;;32.20;18.03;100057.16;4287359;33;19985;-78
2022/08/11 12:32:32;;;;;;;;;;;;;;;32.49;17.18;100063.13;4289317;33;20035;-78
2022/08/11 12:35:00;;;;;;;;;;;;;;;32.46;17.40;100065.19;4287836;33;20056;-79
2022/08/11 12:37:47;;;;;;;;;;;;;;;32.34;16.99;100065.03;4286850;33;20028;-81
2022/08/11 12:46:11;;;;;;;;;;;;;;;31.66;19.76;100057.31;4290288;33;19985;-79
2022/08/11 12:54:40;;;;;;;;;;;;;;;32.13;19.01;100050.47;4288843;33;19989;-79
2022/08/11 13:05:43;;;;;;;;;;;;;;;31.93;19.96;100044.69;4287719;33;20040;-79
2022/08/11 13:08:13;;;;;;;;;;;;;;;32.22;20.17;100033.75;4287020;33;20007;-79
2022/08/11 13:13:27;;;;;;;;;;;;;;;32.55;18.07;100032.38;4289068;33;19980;-79
2022/08/11 13:16:14;;;;;;;;;;;;;;;32.47;18.11;100032.06;4291359;33;20008;-79
2022/08/11 13:18:41;;;;;;;;;;;;;;;32.41;18.92;100022.59;4301258;33;20004;-79
2022/08/11 13:21:08;;;;;;;;;;;;;;;32.67;18.60;100028.78;4296434;33;20099;-78
2022/08/11 13:23:35;;;;;;;;;;;;;;;32.22;19.01;100017.69;4293344;33;20050;-79
2022/08/11 13:26:02;;;;;;;;;;;;;;;32.55;19.16;100018.97;4295213;33;20016;-79
2022/08/11 13:28:29;;;;;;;;;;;;;;;32.66;19.71;100005.63;4297380;33;19996;-79
2022/08/11 13:31:13;;;;;;;;;;;;;;;32.78;18.70;100010.09;4293755;33;20331;-78
2022/08/11 13:33:42;;;;;;;;;;;;;;;32.42;18.59;100009.09;4147001;33;5001904;-79
2022/08/11 13:36:08;;;;;;;;;;;;;;;32.68;18.59;100009.06;4305160;33;20023;-78
2022/08/11 13:38:35;;;;;;;;;;;;;;;32.76;18.86;100012.00;4295378;33;20049;-78
2022/08/11 13:41:36;;;;;;;;;;;;;;;32.63;18.29;100011.19;4298593;33;20087;-79
2022/08/11 13:43:49;;;;;;;;;;;;;;;32.20;19.48;100008.94;4291757;33;19984;-79
2022/08/11 13:46:23;;;;;;;;;;;;;;;32.27;19.38;100010.19;4294398;33;19993;-78
2022/08/11 13:48:54;;;;;;;;;;;;;;;32.13;19.29;100002.28;4289506;33;20041;-79
2022/08/11 13:51:29;;;;;;;;;;;;;;;32.33;19.19;99999.03;4285594;33;19981;-80
2022/08/11 13:54:04;;;;;;;;;;;;;;;31.78;20.17;100005.59;4299462;33;20031;-80
2022/08/11 13:56:32;;;;;;;;;;;;;;;31.92;19.97;99983.25;4292025;33;19997;-79
2022/08/11 13:59:00;;;;;;;;;;;;;;;32.12;20.23;100005.91;4285798;33;20032;-79
2022/08/11 14:01:31;;;;;;;;;;;;;;;31.66;20.45;100003.78;4293434;33;20391;-79
2022/08/11 14:04:23;;;;;;;;;;;;;;;31.72;21.01;100003.34;4291754;33;20015;-80
2022/08/11 14:06:59;;;;;;;;;;;;;;;31.64;22.45;99995.84;4301236;33;20494;-81
2022/08/11 14:09:27;;;;;;;;;;;;;;;31.97;20.96;99997.12;4305339;33;19984;-79
2022/08/11 14:14:58;;;;;;;;;;;;;;;31.78;21.17;100005.59;4281278;33;19977;-80
2022/08/11 14:17:31;;;;;;;;;;;;;;;31.74;20.40;100001.41;4293435;33;19989;-79
2022/08/11 14:20:15;;;;;;;;;;;;;;;31.50;20.72;99998.63;4298164;33;20007;-79
2022/08/11 14:23:02;;;;;;;;;;;;;;;31.46;21.16;99997.09;4292076;33;20315;-80
2022/08/11 14:25:29;;;;;;;;;;;;;;;31.71;21.40;99990.91;4276116;33;20037;-79
2022/08/11 14:28:16;;;;;;;;;;;;;;;31.32;21.61;99994.47;4290495;33;20350;-79
2022/08/11 14:31:00;;;;;;;;;;;;;;;31.49;21.52;99997.75;4290068;33;19977;-79
2022/08/11 14:33:27;;;;;;;;;;;;;;;31.55;21.53;99990.25;4282882;33;20052;-80
2022/08/11 14:36:14;;;;;;;;;;;;;;;31.66;21.08;99993.06;4282078;33;19995;-81
2022/08/11 14:38:42;;;;;;;;;;;;;;;31.36;21.93;99996.84;4299963;33;20023;-80
2022/08/11 14:49:27;;;;;;;;;;;;;;;31.25;23.01;99994.03;4292394;33;19996;-80
2022/08/11 14:51:54;;;;;;;;;;;;;;;31.32;21.73;99987.31;4269608;33;19993;-80
2022/08/11 14:57:21;;;;;;;;;;;;;;;31.20;22.02;99985.44;4251973;33;20001;-80
2022/08/11 15:00:09;;;;;;;;;;;;;;;31.13;21.93;99984.16;4274854;33;19988;-81
2022/08/11 15:05:24;;;;;;;;;;;;;;;31.17;23.24;99980.31;4267321;33;20065;-81
2022/08/11 15:07:51;;;;;;;;;;;;;;;31.19;23.07;99983.75;4275206;33;20032;-83
2022/08/11 15:10:17;;;;;;;;;;;;;;;31.14;23.93;99981.38;4257636;33;19999;-86
2022/08/11 15:12:44;;;;;;;;;;;;;;;31.01;22.63;99981.31;4289175;33;19994;-82
2022/08/11 15:17:57;;;;;;;;;;;;;;;30.76;24.92;99981.19;4297351;33;19993;-83
2022/08/11 15:26:01;;;;;;;;;;;;;;;31.07;21.39;99981.88;4282900;33;20025;-78
2022/08/11 15:39:30;;;;;;;;;;;;;;;31.11;21.36;99970.03;4282618;33;19977;-80
2022/08/11 15:47:40;;;;;;;;;;;;;;;30.89;20.62;99975.94;4291651;33;20078;-79
2022/08/11 15:50:09;;;;;;;;;;;;;;;30.95;20.34;99971.06;4295148;33;20056;-80
2022/08/11 15:52:42;;;;;;;;;;;;;;;30.69;21.03;99969.22;4299245;33;19989;-79
2022/08/11 15:55:09;;;;;;;;;;;;;;;30.83;20.58;99963.84;4283836;33;19997;-79
2022/08/11 16:06:13;;;;;;;;;;;;;;;30.22;22.32;99965.13;4147569;33;5012932;-82
2022/08/11 16:08:41;;;;;;;;;;;;;;;30.67;20.67;99966.66;4306150;33;19993;-80
2022/08/11 16:11:10;;;;;;;;;;;;;;;30.53;21.23;99964.84;4282088;33;20011;-80
2022/08/11 16:16:24;;;;;;;;;;;;;;;30.48;20.76;99955.44;4256750;33;20034;-80
2022/08/11 16:18:53;;;;;;;;;;;;;;;30.35;21.46;99960.72;4270721;33;20057;-80
2022/08/11 16:21:22;;;;;;;;;;;;;;;30.26;22.14;99956.81;4264032;33;20400;-80
2022/08/11 16:24:00;;;;;;;;;;;;;;;30.19;22.47;99954.63;4270234;33;20438;-79
2022/08/11 16:26:28;;;;;;;;;;;;;;;30.45;20.65;99961.84;4264490;33;20001;-80
2022/08/11 16:29:15;;;;;;;;;;;;;;;30.28;22.55;99959.38;4255284;33;19982;-79
2022/08/11 16:31:43;;;;;;;;;;;;;;;30.03;23.52;99960.91;4271159;33;20427;-80
2022/08/11 16:39:48;;;;;;;;;;;;;;;30.04;23.61;99946.59;4282827;33;19992;-80
2022/08/11 16:48:11;;;;;;;;;;;;;;;29.71;23.74;99949.56;4306019;33;19993;-81
2022/08/11 16:50:59;;;;;;;;;;;;;;;29.88;23.99;99953.88;4295453;33;20047;-80
2022/08/11 16:53:30;;;;;;;;;;;;;;;29.87;24.88;99960.16;4293347;33;20263;-80
2022/08/11 16:56:36;;;;;;;;;;;;;;;30.01;23.28;99956.63;4285887;33;19982;-80
2022/08/11 16:59:14;;;;;;;;;;;;;;;29.95;23.05;99957.00;4286603;33;20028;-79
2022/08/11 17:01:44;;;;;;;;;;;;;;;30.00;23.15;99955.78;4285547;33;20003;-80
2022/08/11 17:13:12;;;;;;;;;;;;;;;29.81;24.19;99950.72;4299868;33;19989;-79
2022/08/11 17:18:44;;;;;;;;;;;;;;;29.52;25.49;99955.16;4295509;33;20308;-79
2022/08/11 17:21:32;;;;;;;;;;;;;;;29.50;26.65;99954.38;4286204;33;20342;-78
2022/08/11 17:24:04;;;;;;;;;;;;;;;29.57;25.86;99947.69;4296918;33;19993;-79
2022/08/11 17:26:57;;;;;;;;;;;;;;;29.73;24.85;99954.81;4289450;33;20399;-79
2022/08/11 17:29:33;;;;;;;;;;;;;;;29.54;24.56;99950.56;4280814;33;19970;-79
2022/08/11 17:35:32;;;;;;;;;;;;;;;29.68;24.38;99975.59;4281730;33;19985;-79
2022/08/11 17:38:04;;;;;;;;;;;;;;;29.58;24.80;99980.56;4273871;33;19981;-80
2022/08/11 17:40:32;;;;;;;;;;;;;;;29.25;25.70;99983.47;4285787;33;19993;-80
2022/08/11 17:48:32;;;;;;;;;;;;;;;28.79;26.78;99991.44;4278615;33;20001;-79
2022/08/11 17:51:07;;;;;;;;;;;;;;;28.52;27.60;99989.34;4267599;33;19992;-81
2022/08/11 18:05:01;;;;;;;;;;;;;;;28.20;27.89;100005.28;4293472;33;19992;-83
